Time;durP1;ratioP1;P1;durP2;ratioP2;P2;SDS_P1;SDS_P2;PMS_P1;PMS_P2;Temp;Humidity;BMP_temperature;BMP_pressure;BME280_temperature;BME280_humidity;BME280_pressure;Samples;Min_cycle;Max_cycle;Signal;HPM_P1;HPM_P2
2022/11/06 00:01:47;;;;;;;9.00;3.55;;;;;;;;;;6293683;22;20068;-95
2022/11/06 00:04:13;;;;;;;12.65;3.53;;;;;;;;;;6293092;22;20004;-95
2022/11/06 00:06:48;;;;;;;9.45;3.53;;;;;;;;;;6294164;22;20003;-95
2022/11/06 00:09:15;;;;;;;13.85;3.97;;;;;;;;;;6297064;22;20039;-95
2022/11/06 00:11:51;;;;;;;13.30;3.95;;;;;;;;;;6294710;22;20137;-96
2022/11/06 00:14:49;;;;;;;10.35;3.85;;;;;;;;;;6291447;22;19992;-95
2022/11/06 00:17:27;;;;;;;9.70;4.10;;;;;;;;;;6284040;22;20014;-96
2022/11/06 00:20:04;;;;;;;12.18;4.80;;;;;;;;;;6264601;22;20039;-96
2022/11/06 00:25:07;;;;;;;13.70;5.90;;;;;;;;;;6329402;22;20003;-93
2022/11/06 00:27:42;;;;;;;14.57;5.55;;;;;;;;;;6298024;22;20007;-96
2022/11/06 00:30:10;;;;;;;20.38;8.52;;;;;;;;;;6295445;22;20010;-96
2022/11/06 00:33:10;;;;;;;13.63;5.78;;;;;;;;;;6290721;22;20007;-96
2022/11/06 00:35:40;;;;;;;12.55;4.72;;;;;;;;;;6299609;22;20007;-94
2022/11/06 00:38:15;;;;;;;13.90;5.57;;;;;;;;;;6296324;22;20003;-95
2022/11/06 00:49:52;;;;;;;11.77;4.97;;;;;;;;;;6323446;22;20029;-94
2022/11/06 00:52:26;;;;;;;11.80;4.93;;;;;;;;;;6289747;22;20018;-94
2022/11/06 00:55:02;;;;;;;9.40;4.68;;;;;;;;;;6295107;22;20004;-96
2022/11/06 00:57:57;;;;;;;12.20;4.70;;;;;;;;;;6297432;22;20011;-93
2022/11/06 01:00:41;;;;;;;10.57;4.20;;;;;;;;;;6296202;22;20007;-93
2022/11/06 01:03:22;;;;;;;9.25;4.20;;;;;;;;;;6300156;22;20003;-96
2022/11/06 01:06:19;;;;;;;10.77;4.40;;;;;;;;;;6297948;22;19990;-96
2022/11/06 01:08:46;;;;;;;11.65;4.30;;;;;;;;;;6285295;22;20026;-95
2022/11/06 01:17:06;;;;;;;10.77;3.95;;;;;;;;;;6291446;22;20010;-95
2022/11/06 01:19:41;;;;;;;11.48;4.82;;;;;;;;;;6287583;22;20003;-96
2022/11/06 01:22:07;;;;;;;10.45;4.35;;;;;;;;;;6287744;22;20007;-94
2022/11/06 01:24:33;;;;;;;14.07;4.80;;;;;;;;;;6286066;22;20364;-93
2022/11/06 01:30:07;;;;;;;11.32;5.00;;;;;;;;;;6287854;22;20034;-96
2022/11/06 01:41:25;;;;;;;10.80;4.68;;;;;;;;;;6280314;22;20007;-93
2022/11/06 01:44:05;;;;;;;12.68;4.93;;;;;;;;;;6291093;22;20011;-93
2022/11/06 01:46:35;;;;;;;11.98;5.20;;;;;;;;;;6292316;22;20007;-96
2022/11/06 01:52:34;;;;;;;9.73;4.55;;;;;;;;;;6320644;22;20041;-96
2022/11/06 02:03:27;;;;;;;12.20;4.45;;;;;;;;;;6292880;22;20134;-96
2022/11/06 02:05:53;;;;;;;11.50;5.28;;;;;;;;;;6265760;22;20007;-96
2022/11/06 02:08:21;;;;;;;10.73;5.05;;;;;;;;;;6267791;22;20010;-93
2022/11/06 02:10:47;;;;;;;10.13;3.95;;;;;;;;;;6265951;22;20011;-94
2022/11/06 02:13:26;;;;;;;11.32;4.57;;;;;;;;;;6264469;22;20004;-94
2022/11/06 02:16:17;;;;;;;11.05;4.70;;;;;;;;;;6261092;22;20487;-93
2022/11/06 02:24:59;;;;;;;11.10;4.35;;;;;;;;;;6320597;22;20030;-95
2022/11/06 02:27:27;;;;;;;10.15;4.28;;;;;;;;;;6292282;22;20007;-96
2022/11/06 02:30:19;;;;;;;11.80;4.80;;;;;;;;;;6294706;22;20003;-96
2022/11/06 02:32:58;;;;;;;12.80;4.75;;;;;;;;;;6294186;22;20019;-95
2022/11/06 02:35:29;;;;;;;13.23;5.28;;;;;;;;;;6293741;22;20008;-95
2022/11/06 02:38:12;;;;;;;10.60;4.90;;;;;;;;;;6295834;22;19995;-96
2022/11/06 02:40:59;;;;;;;13.20;4.70;;;;;;;;;;6293238;22;20007;-94
2022/11/06 02:43:31;;;;;;;13.30;4.75;;;;;;;;;;6297024;22;20381;-96
2022/11/06 02:46:42;;;;;;;13.63;4.75;;;;;;;;;;6293512;22;20062;-95
2022/11/06 02:49:11;;;;;;;12.20;5.28;;;;;;;;;;6145854;23;20005;-95
2022/11/06 02:51:53;;;;;;;10.93;4.95;;;;;;;;;;6149832;23;20024;-96
2022/11/06 02:54:20;;;;;;;12.90;5.43;;;;;;;;;;6172276;23;20012;-96
2022/11/06 02:56:50;;;;;;;13.13;5.65;;;;;;;;;;6174036;23;20084;-95
2022/11/06 02:59:33;;;;;;;13.40;5.40;;;;;;;;;;6168096;22;20008;-95
2022/11/06 03:02:20;;;;;;;16.20;5.78;;;;;;;;;;6295527;22;20015;-96
2022/11/06 03:05:02;;;;;;;14.68;5.65;;;;;;;;;;6294640;22;19995;-96
2022/11/06 03:07:37;;;;;;;13.30;5.28;;;;;;;;;;6294215;22;20007;-94
2022/11/06 03:12:54;;;;;;;12.48;4.93;;;;;;;;;;6321491;22;20035;-95
2022/11/06 03:15:38;;;;;;;12.02;5.68;;;;;;;;;;6291570;22;19999;-95
2022/11/06 03:18:17;;;;;;;12.20;5.28;;;;;;;;;;6288897;22;20006;-95
2022/11/06 03:21:03;;;;;;;11.75;5.20;;;;;;;;;;6285924;22;20372;-92
2022/11/06 03:23:52;;;;;;;10.43;5.30;;;;;;;;;;6291166;22;20004;-94
2022/11/06 03:26:38;;;;;;;12.93;5.20;;;;;;;;;;6286542;22;20374;-96
2022/11/06 03:29:24;;;;;;;11.05;5.30;;;;;;;;;;6282839;22;20078;-94
2022/11/06 03:32:01;;;;;;;11.38;4.63;;;;;;;;;;6294821;22;20011;-96
2022/11/06 03:34:38;;;;;;;13.40;5.13;;;;;;;;;;6279233;22;20078;-95
2022/11/06 03:37:34;;;;;;;21.40;5.18;;;;;;;;;;6297739;22;20023;-95
2022/11/06 03:40:02;;;;;;;10.88;5.38;;;;;;;;;;6139949;23;20033;-95
2022/11/06 03:42:33;;;;;;;12.30;4.95;;;;;;;;;;6290869;22;20014;-94
2022/11/06 03:45:14;;;;;;;15.23;5.47;;;;;;;;;;6290396;22;19999;-93
2022/11/06 03:50:49;;;;;;;10.27;4.28;;;;;;;;;;6274080;22;20034;-95
2022/11/06 03:53:35;;;;;;;14.23;4.90;;;;;;;;;;6291515;22;20018;-95
2022/11/06 03:56:40;;;;;;;11.60;4.70;;;;;;;;;;6294114;22;20090;-96
2022/11/06 03:59:28;;;;;;;10.07;4.22;;;;;;;;;;6250636;22;20018;-96
2022/11/06 04:02:03;;;;;;;12.43;4.90;;;;;;;;;;6293479;22;20015;-96
2022/11/06 04:19:16;;;;;;;11.48;4.03;;;;;;;;;;6320168;22;20068;-94
2022/11/06 04:22:07;;;;;;;11.32;4.47;;;;;;;;;;6290828;22;20003;-96
2022/11/06 04:27:45;;;;;;;11.45;4.13;;;;;;;;;;6324037;22;20009;-94
2022/11/06 04:36:29;;;;;;;8.15;3.78;;;;;;;;;;6315551;22;20013;-93
2022/11/06 04:39:11;;;;;;;10.20;3.58;;;;;;;;;;6290321;22;20003;-95
2022/11/06 04:41:37;;;;;;;14.63;4.30;;;;;;;;;;6290094;22;20375;-94
2022/11/06 04:44:07;;;;;;;9.93;4.35;;;;;;;;;;6291564;22;20021;-94
2022/11/06 04:49:37;;;;;;;12.75;4.10;;;;;;;;;;6270781;22;20068;-94
2022/11/06 04:52:16;;;;;;;12.18;4.72;;;;;;;;;;6289081;22;20011;-94
2022/11/06 04:54:42;;;;;;;9.65;3.60;;;;;;;;;;6288942;22;20413;-94
2022/11/06 04:57:14;;;;;;;12.27;3.70;;;;;;;;;;6290095;22;20427;-96
2022/11/06 04:59:43;;;;;;;10.88;4.45;;;;;;;;;;6287252;22;20006;-94
2022/11/06 05:02:24;;;;;;;9.40;4.07;;;;;;;;;;6289017;22;20358;-96
2022/11/06 05:04:57;;;;;;;13.00;4.00;;;;;;;;;;6287230;22;20004;-96
2022/11/06 05:07:29;;;;;;;10.00;3.85;;;;;;;;;;6290571;22;20078;-94
2022/11/06 05:09:55;;;;;;;13.82;4.80;;;;;;;;;;6298000;22;19987;-94
2022/11/06 05:12:23;;;;;;;12.32;4.38;;;;;;;;;;6305667;22;20069;-94
2022/11/06 05:14:56;;;;;;;13.40;3.97;;;;;;;;;;6295558;22;19995;-96
2022/11/06 05:17:22;;;;;;;10.90;3.88;;;;;;;;;;6287299;22;20064;-94
2022/11/06 05:19:54;;;;;;;8.80;3.65;;;;;;;;;;6287687;22;20049;-95
2022/11/06 05:25:11;;;;;;;13.85;3.80;;;;;;;;;;6314856;22;20018;-94
2022/11/06 05:27:49;;;;;;;8.80;3.97;;;;;;;;;;6288972;22;20007;-96
2022/11/06 05:30:41;;;;;;;13.27;3.88;;;;;;;;;;6286403;22;20007;-94
2022/11/06 05:33:08;;;;;;;14.48;4.00;;;;;;;;;;6241257;22;20023;-94
2022/11/06 05:35:34;;;;;;;9.40;4.03;;;;;;;;;;6252177;22;20022;-94
2022/11/06 05:38:01;;;;;;;9.82;3.60;;;;;;;;;;6254758;22;20003;-93
2022/11/06 05:40:27;;;;;;;9.00;3.33;;;;;;;;;;6254813;22;20004;-94
2022/11/06 05:43:06;;;;;;;10.98;4.18;;;;;;;;;;6254620;22;20008;-95
2022/11/06 05:45:32;;;;;;;12.93;3.83;;;;;;;;;;6251023;22;20011;-94
2022/11/06 05:47:58;;;;;;;8.98;3.53;;;;;;;;;;6251337;22;19999;-94
2022/11/06 05:53:29;;;;;;;13.15;3.85;;;;;;;;;;6277960;22;20011;-91
2022/11/06 05:55:55;;;;;;;10.35;3.53;;;;;;;;;;6250976;22;20011;-93
2022/11/06 05:58:21;;;;;;;12.38;3.65;;;;;;;;;;6250628;22;20014;-93
2022/11/06 06:00:48;;;;;;;9.95;3.30;;;;;;;;;;6250808;22;20007;-93
2022/11/06 06:03:14;;;;;;;10.93;3.50;;;;;;;;;;6250846;22;20004;-92
2022/11/06 06:05:40;;;;;;;10.93;3.50;;;;;;;;;;6250324;22;20011;-93
2022/11/06 06:08:06;;;;;;;9.57;3.25;;;;;;;;;;6250730;22;20371;-93
2022/11/06 06:10:32;;;;;;;7.28;3.40;;;;;;;;;;6252655;22;20053;-92
2022/11/06 06:12:59;;;;;;;6.97;3.10;;;;;;;;;;6252669;22;20345;-94
2022/11/06 06:15:25;;;;;;;8.98;3.30;;;;;;;;;;6252718;22;20000;-92
2022/11/06 06:17:51;;;;;;;11.05;3.75;;;;;;;;;;6252841;22;20012;-94
2022/11/06 06:20:20;;;;;;;9.93;3.38;;;;;;;;;;6252891;22;20437;-94
2022/11/06 06:22:52;;;;;;;10.88;3.50;;;;;;;;;;6252960;22;20026;-93
2022/11/06 06:25:19;;;;;;;10.60;3.47;;;;;;;;;;6254742;22;20074;-92
2022/11/06 06:27:45;;;;;;;11.68;3.80;;;;;;;;;;6253112;22;20008;-93
2022/11/06 06:30:29;;;;;;;11.43;3.38;;;;;;;;;;6253221;22;20003;-95
2022/11/06 06:32:55;;;;;;;;;;;;;;;;;;6277143;22;20022;-93
2022/11/06 06:35:21;;;;;;;16.80;3.47;;;;;;;;;;6284744;22;19930;-92
2022/11/06 06:37:52;;;;;;;10.50;3.30;;;;;;;;;;6285236;22;20113;-93
2022/11/06 06:40:18;;;;;;;10.18;3.13;;;;;;;;;;6284342;22;20314;-93
2022/11/06 06:42:44;;;;;;;8.95;3.33;;;;;;;;;;6283716;22;20011;-95
2022/11/06 06:45:10;;;;;;;7.93;2.97;;;;;;;;;;6292998;22;20039;-93
2022/11/06 06:47:37;;;;;;;10.73;3.58;;;;;;;;;;6304472;22;20003;-93
2022/11/06 06:50:03;;;;;;;13.50;3.72;;;;;;;;;;6286136;22;20008;-95
2022/11/06 06:52:29;;;;;;;9.85;4.00;;;;;;;;;;6285536;22;20015;-93
2022/11/06 06:54:57;;;;;;;9.65;3.45;;;;;;;;;;6284248;22;19999;-96
2022/11/06 06:57:23;;;;;;;12.85;3.75;;;;;;;;;;6285825;22;20069;-92
2022/11/06 07:00:06;;;;;;;9.75;3.47;;;;;;;;;;6289746;22;20006;-96
2022/11/06 07:02:33;;;;;;;12.73;4.00;;;;;;;;;;6287858;22;20783;-92
2022/11/06 07:05:19;;;;;;;11.20;3.75;;;;;;;;;;6289791;22;20052;-96
2022/11/06 07:10:33;;;;;;;9.73;3.55;;;;;;;;;;6323937;22;20498;-93
2022/11/06 07:13:09;;;;;;;10.98;3.83;;;;;;;;;;6284206;22;20109;-96
2022/11/06 07:15:35;;;;;;;10.57;3.45;;;;;;;;;;6285338;22;20325;-93
2022/11/06 07:18:02;;;;;;;11.38;3.90;;;;;;;;;;6284162;22;20367;-95
2022/11/06 07:20:29;;;;;;;12.32;4.60;;;;;;;;;;6284088;22;19999;-95
2022/11/06 07:26:31;;;;;;;11.50;4.47;;;;;;;;;;6241702;22;20078;-96
2022/11/06 07:28:56;;;;;;;10.48;4.20;;;;;;;;;;6287774;22;20029;-93
2022/11/06 07:34:39;;;;;;;8.00;3.20;;;;;;;;;;6309439;22;20462;-95
2022/11/06 07:37:07;;;;;;;10.05;4.32;;;;;;;;;;6285669;22;20003;-92
2022/11/06 07:39:33;;;;;;;9.82;3.33;;;;;;;;;;6285995;22;20003;-92
2022/11/06 07:41:59;;;;;;;7.03;2.95;;;;;;;;;;6285367;22;20010;-96
2022/11/06 07:44:26;;;;;;;7.93;3.30;;;;;;;;;;6258184;22;20015;-95
2022/11/06 07:47:05;;;;;;;;;;;;;;;;;;;;;
2022/11/06 08:01:53;;;;;;;8.95;3.95;;;;;;;;;;6219198;23;20080;-94
2022/11/06 08:04:20;;;;;;;10.00;4.70;;;;;;;;;;6194669;23;20005;-95
2022/11/06 08:06:50;;;;;;;12.50;5.07;;;;;;;;;;6191113;23;20095;-95
2022/11/06 08:09:17;;;;;;;10.45;4.45;;;;;;;;;;6263200;22;20034;-95
2022/11/06 08:11:43;;;;;;;8.05;4.32;;;;;;;;;;6282474;22;20050;-95
2022/11/06 08:14:09;;;;;;;13.15;6.20;;;;;;;;;;6282923;22;20006;-95
2022/11/06 08:16:38;;;;;;;11.63;5.95;;;;;;;;;;6284482;22;20023;-94
2022/11/06 08:19:04;;;;;;;10.88;6.10;;;;;;;;;;6284476;22;20003;-94
2022/11/06 08:21:30;;;;;;;7.57;4.20;;;;;;;;;;6293330;22;20063;-92
2022/11/06 08:23:56;;;;;;;10.18;4.50;;;;;;;;;;6300747;22;20004;-94
2022/11/06 08:26:22;;;;;;;9.55;4.00;;;;;;;;;;6285197;22;20004;-94
2022/11/06 08:28:52;;;;;;;10.73;5.20;;;;;;;;;;6283110;22;20068;-93
2022/11/06 08:31:19;;;;;;;8.05;4.05;;;;;;;;;;6284542;22;20019;-95
2022/11/06 08:33:46;;;;;;;8.45;3.78;;;;;;;;;;6284598;22;20039;-94
2022/11/06 08:36:12;;;;;;;12.15;5.70;;;;;;;;;;6285474;22;20067;-96
2022/11/06 08:38:39;;;;;;;9.40;4.43;;;;;;;;;;6286002;22;20006;-96
2022/11/06 08:41:11;;;;;;;13.30;7.55;;;;;;;;;;6259191;22;20007;-95
2022/11/06 08:43:42;;;;;;;11.45;6.05;;;;;;;;;;6310326;22;20003;-96
2022/11/06 08:46:08;;;;;;;6.50;4.05;;;;;;;;;;6285241;22;20007;-94
2022/11/06 08:48:50;;;;;;;7.40;3.80;;;;;;;;;;6310759;22;20083;-96
2022/11/06 08:51:20;;;;;;;7.30;4.07;;;;;;;;;;6283828;22;20012;-94
2022/11/06 08:53:46;;;;;;;8.02;4.07;;;;;;;;;;6283406;22;20003;-95
2022/11/06 08:56:13;;;;;;;7.15;3.50;;;;;;;;;;6282928;22;20014;-95
2022/11/06 08:58:39;;;;;;;8.60;3.85;;;;;;;;;;6282592;22;20011;-95
2022/11/06 09:01:05;;;;;;;7.03;4.10;;;;;;;;;;6283837;22;20003;-95
2022/11/06 09:03:31;;;;;;;7.32;3.92;;;;;;;;;;6282969;22;20428;-96
2022/11/06 09:05:58;;;;;;;8.10;4.45;;;;;;;;;;6257041;22;20015;-96
2022/11/06 09:08:25;;;;;;;8.77;4.00;;;;;;;;;;6282693;22;20030;-95
2022/11/06 09:10:51;;;;;;;7.90;4.00;;;;;;;;;;6283589;22;20015;-96
2022/11/06 09:13:22;;;;;;;7.00;3.97;;;;;;;;;;6283560;22;20004;-95
2022/11/06 09:16:26;;;;;;;;;;;;;;;;;;;;;
2022/11/06 09:19:25;;;;;;;7.22;4.30;;;;;;;;;;6187810;23;20185;-96
2022/11/06 09:22:00;;;;;;;6.97;3.70;;;;;;;;;;6158871;23;20454;-96
2022/11/06 09:24:46;;;;;;;6.75;3.47;;;;;;;;;;6168230;23;20029;-96
2022/11/06 09:27:21;;;;;;;5.32;2.90;;;;;;;;;;6180721;22;20557;-96
2022/11/06 09:32:59;;;;;;;5.95;3.15;;;;;;;;;;6261070;22;20049;-95
2022/11/06 09:35:26;;;;;;;5.78;3.20;;;;;;;;;;6286193;22;20340;-95
2022/11/06 09:37:53;;;;;;;6.30;3.50;;;;;;;;;;6285890;22;19999;-95
2022/11/06 09:40:20;;;;;;;8.18;4.45;;;;;;;;;;6286143;22;20003;-96
2022/11/06 09:43:23;;;;;;;8.15;4.57;;;;;;;;;;6312357;22;20435;-96
2022/11/06 09:45:58;;;;;;;7.55;4.55;;;;;;;;;;6158166;23;20016;-96
2022/11/06 09:48:45;;;;;;;7.38;4.10;;;;;;;;;;6188713;22;20035;-96
2022/11/06 09:51:34;;;;;;;6.53;4.45;;;;;;;;;;6283446;22;20019;-96
2022/11/06 09:54:23;;;;;;;8.23;4.88;;;;;;;;;;6298656;22;20060;-96
2022/11/06 09:56:55;;;;;;;8.27;4.32;;;;;;;;;;6317658;22;20010;-94
2022/11/06 09:59:21;;;;;;;8.93;4.55;;;;;;;;;;6271996;22;20062;-93
2022/11/06 10:01:53;;;;;;;7.22;4.57;;;;;;;;;;6284573;22;20006;-94
2022/11/06 10:04:39;;;;;;;6.13;4.23;;;;;;;;;;6281819;22;20007;-93
2022/11/06 10:07:12;;;;;;;7.28;4.65;;;;;;;;;;6285100;22;20357;-94
2022/11/06 10:53:32;;;;;;;7.15;4.20;;;;;;;;;;6328345;22;20053;-95
2022/11/06 10:56:03;;;;;;;8.20;4.15;;;;;;;;;;6284947;22;20014;-91
2022/11/06 10:58:48;;;;;;;7.53;4.43;;;;;;;;;;6286982;22;20000;-94
2022/11/06 11:01:14;;;;;;;7.85;5.00;;;;;;;;;;6289164;22;20324;-93
2022/11/06 11:03:44;;;;;;;7.93;4.65;;;;;;;;;;6285144;22;20006;-92
2022/11/06 11:06:10;;;;;;;9.23;4.90;;;;;;;;;;6287064;22;20014;-95
2022/11/06 11:08:39;;;;;;;8.07;4.32;;;;;;;;;;6288669;22;20067;-92
2022/11/06 11:11:05;;;;;;;10.30;5.00;;;;;;;;;;6269821;22;20043;-91
2022/11/06 11:13:31;;;;;;;7.63;4.53;;;;;;;;;;6280842;22;20039;-88
2022/11/06 11:21:55;;;;;;;6.55;4.00;;;;;;;;;;6309360;22;20014;-88
2022/11/06 11:24:21;;;;;;;7.70;4.00;;;;;;;;;;6314847;22;20003;-88
2022/11/06 11:27:07;;;;;;;7.07;4.07;;;;;;;;;;6291142;22;20054;-90
2022/11/06 11:29:50;;;;;;;7.53;4.10;;;;;;;;;;6324652;22;20003;-90
2022/11/06 11:32:48;;;;;;;9.63;4.05;;;;;;;;;;6298680;22;20015;-93
2022/11/06 11:35:19;;;;;;;7.10;4.07;;;;;;;;;;6268671;22;20014;-89
2022/11/06 11:37:46;;;;;;;10.20;5.25;;;;;;;;;;6320181;22;20018;-89
2022/11/06 11:40:25;;;;;;;6.97;4.00;;;;;;;;;;6313812;22;19999;-89
2022/11/06 11:43:14;;;;;;;8.63;4.13;;;;;;;;;;6317043;22;20003;-93
2022/11/06 11:48:16;;;;;;;7.38;3.85;;;;;;;;;;6307654;22;20351;-91
2022/11/06 11:50:42;;;;;;;5.18;3.38;;;;;;;;;;6289436;22;19999;-93
2022/11/06 11:53:19;;;;;;;8.48;4.00;;;;;;;;;;6282936;22;20111;-92
2022/11/06 11:55:53;;;;;;;7.70;4.15;;;;;;;;;;6282306;22;20007;-92
2022/11/06 11:58:21;;;;;;;8.63;4.50;;;;;;;;;;6282382;22;19999;-92
2022/11/06 12:01:08;;;;;;;6.82;3.53;;;;;;;;;;6282479;22;20023;-92
2022/11/06 12:03:39;;;;;;;6.28;3.63;;;;;;;;;;6282796;22;20014;-92
2022/11/06 12:06:07;;;;;;;6.72;4.15;;;;;;;;;;6282782;22;19995;-93
2022/11/06 12:08:33;;;;;;;6.25;3.90;;;;;;;;;;6282296;22;20003;-92
2022/11/06 12:11:03;;;;;;;6.07;3.63;;;;;;;;;;6282537;22;20007;-92
2022/11/06 12:13:30;;;;;;;7.05;3.40;;;;;;;;;;6282415;22;20057;-91
2022/11/06 12:15:59;;;;;;;6.88;3.58;;;;;;;;;;6282697;22;20007;-93
2022/11/06 12:18:31;;;;;;;8.45;4.20;;;;;;;;;;6282490;22;20452;-93
2022/11/06 12:20:57;;;;;;;7.65;4.53;;;;;;;;;;6282697;22;20041;-91
2022/11/06 12:23:23;;;;;;;6.65;4.45;;;;;;;;;;6282603;22;20010;-93
2022/11/06 12:26:19;;;;;;;7.35;4.20;;;;;;;;;;6282466;22;20009;-91
2022/11/06 12:28:48;;;;;;;9.05;5.28;;;;;;;;;;6177134;22;20025;-91
2022/11/06 12:31:25;;;;;;;9.07;4.75;;;;;;;;;;6282998;22;20015;-89
2022/11/06 12:33:52;;;;;;;8.40;5.05;;;;;;;;;;6282649;22;20022;-92
2022/11/06 12:36:19;;;;;;;9.20;5.03;;;;;;;;;;6282447;22;20014;-91
2022/11/06 12:38:49;;;;;;;7.95;5.05;;;;;;;;;;6282320;22;20037;-93
2022/11/06 12:41:15;;;;;;;11.50;5.28;;;;;;;;;;6282986;22;20494;-92
2022/11/06 12:43:46;;;;;;;7.82;4.93;;;;;;;;;;6282460;22;20008;-89
2022/11/06 12:46:12;;;;;;;11.77;5.90;;;;;;;;;;6282285;22;20003;-91
2022/11/06 12:48:43;;;;;;;8.60;5.07;;;;;;;;;;6283650;22;20019;-92
2022/11/06 12:51:13;;;;;;;8.27;5.68;;;;;;;;;;6282058;22;20011;-91
2022/11/06 12:53:58;;;;;;;9.52;5.68;;;;;;;;;;6282572;22;20003;-94
2022/11/06 12:56:38;;;;;;;9.85;5.38;;;;;;;;;;6283256;22;20078;-90
2022/11/06 12:59:38;;;;;;;11.82;5.57;;;;;;;;;;6285062;22;20003;-90
2022/11/06 13:02:11;;;;;;;10.15;5.35;;;;;;;;;;6311891;22;20164;-89
2022/11/06 13:04:47;;;;;;;11.25;5.60;;;;;;;;;;6283704;22;20003;-87
2022/11/06 13:07:22;;;;;;;10.38;5.00;;;;;;;;;;6309697;22;20080;-88
2022/11/06 13:09:51;;;;;;;11.73;7.65;;;;;;;;;;6283961;22;20034;-89
2022/11/06 13:12:20;;;;;;;14.77;8.93;;;;;;;;;;6303334;22;20001;-88
2022/11/06 13:15:04;;;;;;;10.35;6.10;;;;;;;;;;6295538;22;19995;-89
2022/11/06 13:17:31;;;;;;;9.40;5.50;;;;;;;;;;6287529;22;20003;-89
2022/11/06 13:20:10;;;;;;;9.80;6.00;;;;;;;;;;6287341;22;20054;-88
2022/11/06 13:22:45;;;;;;;9.35;5.45;;;;;;;;;;6285309;22;20004;-89
2022/11/06 13:25:11;;;;;;;6.53;4.82;;;;;;;;;;6284315;22;20011;-88
2022/11/06 13:27:50;;;;;;;11.13;5.32;;;;;;;;;;6314937;22;20000;-91
2022/11/06 13:30:29;;;;;;;10.00;5.25;;;;;;;;;;6288547;22;20007;-89
2022/11/06 13:33:00;;;;;;;8.00;5.07;;;;;;;;;;6285697;22;20015;-90
2022/11/06 13:35:27;;;;;;;9.20;5.35;;;;;;;;;;6281514;22;20015;-89
2022/11/06 13:38:02;;;;;;;11.10;5.75;;;;;;;;;;6281497;22;20003;-88
2022/11/06 13:40:32;;;;;;;10.43;5.97;;;;;;;;;;6315266;22;20007;-90
2022/11/06 13:46:23;;;;;;;8.68;4.90;;;;;;;;;;6289932;22;20048;-95
2022/11/06 13:48:55;;;;;;;9.02;5.20;;;;;;;;;;6291535;22;20455;-96
2022/11/06 13:51:52;;;;;;;9.27;5.90;;;;;;;;;;6291501;22;20015;-93
2022/11/06 13:54:36;;;;;;;8.68;5.05;;;;;;;;;;6291019;22;19996;-95
2022/11/06 13:57:24;;;;;;;9.48;5.45;;;;;;;;;;6296417;22;20006;-96
2022/11/06 14:00:03;;;;;;;11.10;6.03;;;;;;;;;;6289737;22;20094;-96
2022/11/06 14:05:53;;;;;;;11.35;6.90;;;;;;;;;;6323525;22;20023;-94
2022/11/06 14:11:53;;;;;;;11.45;7.25;;;;;;;;;;6169222;23;20030;-93
2022/11/06 14:17:17;;;;;;;11.00;7.03;;;;;;;;;;6315728;22;20030;-96
2022/11/06 14:23:01;;;;;;;;;;;;;;;;;;;;;
2022/11/06 14:25:37;;;;;;;10.93;7.70;;;;;;;;;;6320133;22;20030;-96
2022/11/06 14:28:06;;;;;;;12.55;6.90;;;;;;;;;;6292289;22;20437;-95
2022/11/06 14:36:54;;;;;;;10.88;6.70;;;;;;;;;;6165164;23;20032;-96
2022/11/06 14:39:38;;;;;;;11.75;6.25;;;;;;;;;;6167718;23;19993;-96
2022/11/06 14:42:07;;;;;;;12.23;6.97;;;;;;;;;;6267958;22;20003;-93
2022/11/06 14:44:39;;;;;;;12.90;7.70;;;;;;;;;;6284693;22;20003;-88
2022/11/06 14:47:44;;;;;;;12.40;7.00;;;;;;;;;;6288305;22;20011;-96
2022/11/06 14:53:16;;;;;;;16.90;9.60;;;;;;;;;;6302377;22;20003;-96
2022/11/06 14:58:21;;;;;;;17.23;9.88;;;;;;;;;;6262835;22;20087;-89
2022/11/06 15:00:58;;;;;;;15.18;9.20;;;;;;;;;;6287164;22;20443;-86
2022/11/06 15:06:29;;;;;;;16.92;9.70;;;;;;;;;;6303913;22;20010;-91
2022/11/06 15:08:57;;;;;;;14.45;9.52;;;;;;;;;;6284955;22;20425;-84
2022/11/06 15:11:41;;;;;;;16.98;10.95;;;;;;;;;;6283519;22;20018;-90
2022/11/06 15:14:07;;;;;;;17.10;9.32;;;;;;;;;;6286449;22;20007;-86
2022/11/06 15:16:39;;;;;;;16.15;9.93;;;;;;;;;;6285942;22;20007;-87
2022/11/06 15:19:07;;;;;;;12.13;8.80;;;;;;;;;;6312953;22;20380;-87
2022/11/06 15:21:36;;;;;;;13.80;10.15;;;;;;;;;;6289573;22;20332;-94
2022/11/06 15:27:19;;;;;;;17.05;9.85;;;;;;;;;;6315287;22;20026;-96
2022/11/06 15:29:51;;;;;;;15.88;10.18;;;;;;;;;;6290008;22;20065;-92
2022/11/06 15:35:11;;;;;;;16.42;10.48;;;;;;;;;;6293014;22;20022;-96
2022/11/06 15:40:41;;;;;;;17.00;11.75;;;;;;;;;;6303019;22;20041;-88
2022/11/06 15:43:09;;;;;;;19.25;12.00;;;;;;;;;;6258064;22;20007;-85
2022/11/06 15:49:15;;;;;;;21.13;11.57;;;;;;;;;;6228533;23;20100;-88
2022/11/06 15:51:49;;;;;;;21.63;12.73;;;;;;;;;;6195962;23;20024;-87
2022/11/06 15:54:32;;;;;;;25.63;15.18;;;;;;;;;;6193030;23;20084;-89
2022/11/06 15:57:00;;;;;;;25.98;15.07;;;;;;;;;;6193494;23;20008;-88
2022/11/06 15:59:26;;;;;;;23.88;15.23;;;;;;;;;;6197620;23;20477;-88
2022/11/06 16:01:54;;;;;;;24.02;14.90;;;;;;;;;;6217953;23;20116;-93
2022/11/06 16:04:23;;;;;;;22.60;15.13;;;;;;;;;;6193304;23;20007;-87
2022/11/06 16:06:51;;;;;;;21.23;13.15;;;;;;;;;;6191221;23;20009;-86
2022/11/06 16:09:26;;;;;;;20.10;13.30;;;;;;;;;;6193179;23;20005;-88
2022/11/06 16:11:53;;;;;;;19.55;13.98;;;;;;;;;;6190779;23;20017;-86
2022/11/06 16:14:19;;;;;;;22.25;15.50;;;;;;;;;;6190803;23;20079;-84
2022/11/06 16:16:50;;;;;;;19.27;13.57;;;;;;;;;;6191007;23;20009;-95
2022/11/06 16:19:27;;;;;;;16.88;12.07;;;;;;;;;;6221709;22;20004;-88
2022/11/06 16:22:07;;;;;;;15.07;10.75;;;;;;;;;;6263715;22;20008;-96
2022/11/06 16:27:10;;;;;;;30.02;19.23;;;;;;;;;;6294597;22;20076;-87
2022/11/06 16:29:36;;;;;;;26.95;15.40;;;;;;;;;;6280724;22;20004;-87
2022/11/06 16:32:05;;;;;;;19.65;12.48;;;;;;;;;;6281089;22;20018;-87
2022/11/06 16:34:31;;;;;;;15.77;10.93;;;;;;;;;;6280800;22;20436;-86
2022/11/06 16:37:02;;;;;;;18.80;11.57;;;;;;;;;;6308103;22;20336;-89
2022/11/06 16:39:28;;;;;;;18.50;11.20;;;;;;;;;;6281659;22;20326;-90
2022/11/06 16:42:22;;;;;;;37.85;26.25;;;;;;;;;;6288471;22;20038;-96
2022/11/06 16:45:08;;;;;;;29.88;18.92;;;;;;;;;;6317920;22;20321;-91
2022/11/06 16:47:34;;;;;;;29.23;19.08;;;;;;;;;;6265074;22;20009;-91
2022/11/06 16:50:04;;;;;;;26.10;18.83;;;;;;;;;;6281782;22;20098;-91
2022/11/06 16:52:30;;;;;;;31.65;20.10;;;;;;;;;;6281767;22;20019;-91
2022/11/06 16:54:56;;;;;;;31.35;21.38;;;;;;;;;;6309239;22;20455;-91
2022/11/06 16:57:25;;;;;;;39.88;25.83;;;;;;;;;;6282409;22;20014;-90
2022/11/06 17:00:10;;;;;;;41.13;29.10;;;;;;;;;;6284737;22;20014;-92
2022/11/06 17:02:37;;;;;;;44.33;28.92;;;;;;;;;;6282548;22;20419;-92
2022/11/06 17:05:17;;;;;;;41.35;29.63;;;;;;;;;;6282699;22;20003;-94
2022/11/06 17:07:44;;;;;;;39.95;26.70;;;;;;;;;;6283102;22;20315;-95
2022/11/06 17:10:29;;;;;;;32.35;21.92;;;;;;;;;;6282105;22;20003;-90
2022/11/06 17:12:56;;;;;;;33.17;22.40;;;;;;;;;;6284544;22;20015;-90
2022/11/06 17:15:22;;;;;;;31.52;21.45;;;;;;;;;;6256510;22;20030;-90
2022/11/06 17:17:49;;;;;;;33.53;22.33;;;;;;;;;;6281769;22;20008;-92
2022/11/06 17:20:17;;;;;;;30.63;20.80;;;;;;;;;;6281973;22;20022;-91
2022/11/06 17:22:43;;;;;;;29.88;21.05;;;;;;;;;;6282249;22;20003;-93
2022/11/06 17:25:14;;;;;;;34.78;22.95;;;;;;;;;;6281841;22;20374;-93
2022/11/06 17:27:40;;;;;;;33.58;20.00;;;;;;;;;;6281575;22;20015;-93
2022/11/06 17:30:11;;;;;;;33.33;21.25;;;;;;;;;;6281730;22;20004;-93
2022/11/06 17:32:38;;;;;;;31.95;20.52;;;;;;;;;;6282018;22;20011;-93
2022/11/06 17:35:04;;;;;;;27.35;18.35;;;;;;;;;;6282207;22;20078;-92
2022/11/06 17:37:30;;;;;;;31.13;18.50;;;;;;;;;;6282965;22;20014;-92
2022/11/06 17:39:56;;;;;;;29.83;17.08;;;;;;;;;;6281698;22;20003;-94
2022/11/06 17:42:22;;;;;;;27.45;16.52;;;;;;;;;;6281924;22;20428;-93
2022/11/06 17:44:48;;;;;;;28.80;16.75;;;;;;;;;;6281570;22;20015;-93
2022/11/06 17:47:15;;;;;;;27.75;17.88;;;;;;;;;;6282021;22;20057;-93
2022/11/06 17:49:41;;;;;;;27.40;16.40;;;;;;;;;;6282438;22;20055;-94
2022/11/06 17:52:07;;;;;;;31.98;19.08;;;;;;;;;;6282358;22;20011;-91
2022/11/06 17:54:36;;;;;;;31.95;18.75;;;;;;;;;;6282717;22;20009;-92
2022/11/06 17:57:03;;;;;;;27.98;17.27;;;;;;;;;;6274567;22;20020;-90
2022/11/06 17:59:30;;;;;;;26.52;17.30;;;;;;;;;;6276670;22;20031;-90
2022/11/06 18:01:56;;;;;;;34.80;19.23;;;;;;;;;;6280990;22;20014;-89
2022/11/06 18:07:30;;;;;;;28.80;16.55;;;;;;;;;;6235299;22;20069;-95
2022/11/06 18:09:56;;;;;;;40.28;24.50;;;;;;;;;;6282814;22;20082;-92
2022/11/06 18:12:26;;;;;;;46.83;30.70;;;;;;;;;;6282521;22;20018;-90
2022/11/06 18:14:54;;;;;;;28.38;17.50;;;;;;;;;;6281671;22;20007;-91
2022/11/06 18:17:20;;;;;;;26.50;14.90;;;;;;;;;;6282405;22;20000;-90
2022/11/06 18:19:46;;;;;;;25.67;15.60;;;;;;;;;;6281816;22;20011;-90
2022/11/06 18:22:12;;;;;;;24.38;16.17;;;;;;;;;;6281888;22;20431;-89
2022/11/06 18:24:39;;;;;;;25.33;16.92;;;;;;;;;;6281927;22;20003;-89
2022/11/06 18:27:05;;;;;;;22.80;14.88;;;;;;;;;;6282066;22;20005;-90
2022/11/06 18:29:31;;;;;;;23.83;15.38;;;;;;;;;;6281762;22;20000;-90
2022/11/06 18:31:57;;;;;;;23.00;16.48;;;;;;;;;;6283257;22;20042;-92
2022/11/06 18:34:24;;;;;;;26.13;17.35;;;;;;;;;;6306221;22;20010;-86
2022/11/06 18:36:50;;;;;;;25.80;16.15;;;;;;;;;;6316936;22;20018;-89
2022/11/06 18:39:16;;;;;;;27.85;17.02;;;;;;;;;;6282118;22;19999;-92
2022/11/06 18:41:42;;;;;;;25.58;15.85;;;;;;;;;;6281489;22;20007;-88